Latest Weather Observations for Cape Bruny AWS

IDT60801

Issued at 10:01 am EST Sunday 5 July 2015 (issued every 30 minutes, with the page automatically refreshed every 10 minutes)

About weather observations | Map of weather stations | Latest weather observations for TAS | Other Formats
Station Details ID: 094198 Name: CAPE BRUNY (CAPE BRUNY) Lat: -43.49 Lon: 147.14 Height: 59.7 m
Data from the previous 72 hours. | See also: Recent months at Cape Bruny AWS
Date/Time
EST
Temp
°C
App
Temp
°C
Dew
Point
Rel
Hum
%
Delta-T
°C
Wind Press
QNH
hPa
Press
MSL
hPa
Rain
since 9 am
mm
Dir
 
Spd
km/h
Gust
km/h
Spd
kts
Gust
kts
05/10:00am 9.3 4.2 3.9 69 2.4 W 20 26 11 14 1013.9 1014.0 0.0
05/09:30am 9.0 3.9 3.2 67 2.5 WSW 19 24 10 13 1013.9 1014.0 0.0
05/09:00am 8.4 2.8 3.3 70 2.2 W 22 32 12 17 1013.7 1013.8 0.4
05/08:30am 8.5 3.1 4.3 75 1.8 W 22 28 12 15 1013.7 1013.8 0.4
05/08:00am 8.4 3.0 4.4 76 1.8 W 22 32 12 17 1013.7 1013.8 0.4
05/07:30am 8.5 2.7 4.5 76 1.8 W 24 30 13 16 1013.4 1013.5 0.4
05/07:00am 8.2 1.3 4.8 79 1.5 W 30 35 16 19 1013.0 1013.1 0.4
05/06:30am 7.8 0.9 4.7 81 1.4 W 30 43 16 23 1012.9 1013.0 0.2
05/06:00am 7.4 1.7 4.7 83 1.2 W 24 35 13 19 1013.0 1013.1 0.2
05/05:46am 8.0 1.9 4.9 81 1.4 W 26 41 14 22 1012.9 1013.0 0.0
05/05:30am 8.0 3.6 4.6 79 1.5 WNW 17 20 9 11 1012.8 1012.9 0.0
05/05:00am 8.2 3.7 4.2 76 1.7 W 17 22 9 12 1012.8 1012.9 0.0
05/04:30am 8.6 4.1 4.4 75 1.9 WNW 17 20 9 11 1012.6 1012.7 0.0
05/04:00am 8.5 2.7 4.3 75 1.8 WNW 24 28 13 15 1012.6 1012.7 0.0
05/03:30am 8.5 3.4 3.9 73 2.0 WNW 20 32 11 17 1012.5 1012.6 0.0
05/03:00am 8.4 3.2 3.8 73 2.0 WNW 20 26 11 14 1012.9 1013.0 0.0
05/02:30am 8.8 4.2 3.6 70 2.3 NW 17 22 9 12 1013.1 1013.2 0.0
05/02:00am 8.7 2.2 2.7 66 2.5 NW 26 35 14 19 1012.7 1012.8 0.0
05/01:30am 8.7 2.2 2.9 67 2.5 WNW 26 32 14 17 1012.7 1012.8 0.0
05/01:00am 8.7 2.6 2.9 67 2.5 WNW 24 32 13 17 1012.8 1012.9 0.0
05/12:30am 8.7 2.6 2.7 66 2.5 WNW 24 32 13 17 1012.7 1012.8 0.0
05/12:00am 8.6 3.2 2.4 65 2.6 WNW 20 28 11 15 1012.7 1012.8 0.0
 
Date/Time
EST
Temp
°C
App
Temp
°C
Dew
Point
Rel
Hum
%
Delta-T
°C
Wind Press
QNH
hPa
Press
MSL
hPa
Rain
since 9 am
mm
Dir
 
Spd
km/h
Gust
km/h
Spd
kts
Gust
kts
04/11:30pm 8.7 2.1 2.3 64 2.7 WNW 26 33 14 18 1012.8 1012.9 0.0
04/11:00pm 8.8 2.2 2.2 63 2.8 WNW 26 32 14 17 1012.8 1012.9 0.0
04/10:30pm 8.9 2.4 2.7 65 2.6 WNW 26 33 14 18 1012.8 1012.9 0.0
04/10:00pm 8.8 2.3 2.6 65 2.6 WNW 26 32 14 17 1012.9 1013.0 0.0
04/09:30pm 8.5 2.4 2.7 67 2.5 WNW 24 35 13 19 1012.9 1013.0 0.0
04/09:00pm 8.3 3.6 3.4 71 2.1 NW 17 24 9 13 1013.0 1013.1 0.0
04/08:30pm 8.4 4.1 3.3 70 2.2 W 15 19 8 10 1013.3 1013.4 0.0
04/08:00pm 8.5 4.6 3.6 71 2.1 W 13 17 7 9 1013.1 1013.2 0.0
04/07:30pm 8.5 3.0 3.9 73 2.0 W 22 33 12 18 1012.8 1012.9 0.0
04/07:15pm 8.1 0.7 3.9 75 1.8 WSW 32 50 17 27 1012.8 1012.9 0.0
04/07:00pm 8.7 1.3 4.1 73 2.0 WSW 32 43 17 23 1012.6 1012.7 0.0
04/06:30pm 8.8 0.4 3.8 71 2.2 WSW 37 46 20 25 1012.3 1012.4 0.0
04/06:05pm 9.3 1.5 2.9 64 2.7 W 33 54 18 29 1012.0 1012.1 0.0
04/06:00pm 9.2 1.9 2.3 62 2.9 W 30 39 16 21 1012.0 1012.1 0.0
04/05:30pm 8.9 1.3 3.7 70 2.3 W 33 44 18 24 1012.0 1012.1 0.0
04/05:00pm 9.1 2.1 3.9 70 2.3 W 30 37 16 20 1011.7 1011.8 0.0
04/04:43pm 8.9 0.2 3.9 71 2.2 W 39 57 21 31 1011.5 1011.6 0.0
04/04:30pm 8.8 -0.2 4.4 74 1.9 WSW 41 56 22 30 1011.5 1011.6 0.0
04/04:04pm 9.1 1.1 3.9 70 2.3 W 35 57 19 31 1011.4 1011.5 0.0
04/04:00pm 9.2 2.1 3.4 67 2.5 W 30 43 16 23 1011.4 1011.5 0.0
04/03:30pm 9.5 1.0 3.0 64 2.8 WSW 37 50 20 27 1011.2 1011.3 0.0
04/03:00pm 10.0 2.1 2.4 59 3.2 W 33 48 18 26 1010.9 1011.0 0.0
04/02:53pm 10.1 3.2 2.7 60 3.2 W 28 48 15 26 1010.9 1011.0 0.0
04/02:30pm 10.3 2.2 3.3 62 3.1 W 35 46 19 25 1010.8 1010.9 0.0
04/02:07pm 9.7 0.9 3.7 66 2.6 W 39 57 21 31 1010.5 1010.6 0.0
04/02:00pm 9.7 0.3 4.5 70 2.3 W 43 57 23 31 1010.6 1010.7 0.0
04/01:41pm 9.4 -0.9 4.8 73 2.1 W 48 67 26 36 1010.4 1010.5 0.0
04/01:30pm 9.2 -0.6 5.2 76 1.8 WSW 46 63 25 34 1010.3 1010.4 0.0
04/01:05pm 10.3 3.5 3.3 62 3.1 W 28 48 15 26 1010.3 1010.4 0.0
04/01:00pm 10.5 4.2 3.8 63 3.0 W 26 32 14 17 1010.3 1010.4 0.0
04/12:30pm 10.4 2.3 3.2 61 3.1 W 35 57 19 31 1010.3 1010.4 0.0
04/12:05pm 10.6 3.7 2.4 57 3.5 W 28 50 15 27 1010.3 1010.4 0.0
04/12:00pm 10.8 4.8 3.1 59 3.4 W 24 33 13 18 1010.4 1010.5 0.0
04/11:30am 10.9 2.8 3.0 58 3.4 W 35 46 19 25 1010.6 1010.7 0.0
04/11:00am 11.0 2.9 3.1 58 3.5 W 35 46 19 25 1010.8 1010.9 0.0
04/10:32am 10.3 2.5 3.1 61 3.1 W 33 54 18 29 1010.5 1010.6 0.0
04/10:30am 10.4 2.9 3.7 63 3.0 W 32 44 17 24 1010.5 1010.6 0.0
04/10:00am 10.1 2.3 5.1 71 2.3 WSW 35 44 19 24 1010.1 1010.2 0.0
04/09:30am 10.4 2.0 5.4 71 2.3 WSW 39 50 21 27 1009.6 1009.7 0.0
04/09:00am 10.7 2.2 5.3 69 2.5 W 39 50 21 27 1009.1 1009.2 0.4
04/08:41am 10.7 1.2 4.8 67 2.7 W 44 63 24 34 1008.6 1008.7 0.4
04/08:30am 10.6 0.9 5.6 71 2.3 WSW 46 57 25 31 1008.5 1008.6 0.4
04/08:07am 10.5 1.2 5.9 73 2.1 WSW 44 69 24 37 1008.3 1008.4 0.4
04/08:00am 10.4 1.3 6.0 74 2.0 WSW 43 56 23 30 1008.3 1008.4 0.4
04/07:47am 10.8 0.8 6.0 72 2.2 W 48 67 26 36 1008.1 1008.2 0.4
04/07:30am 10.7 -1.0 6.3 74 2.1 WSW 57 72 31 39 1008.1 1008.2 0.4
04/07:14am 10.8 1.2 6.4 74 2.1 WSW 46 65 25 35 1008.1 1008.2 0.4
04/07:00am 10.9 0.6 6.5 74 2.1 WSW 50 63 27 34 1007.8 1007.9 0.4
04/06:30am 10.6 1.2 7.1 79 1.7 WSW 46 61 25 33 1007.7 1007.8 0.4
04/06:00am 11.1 0.0 6.5 73 2.2 WSW 54 70 29 38 1007.3 1007.4 0.4
04/05:54am 11.1 0.5 6.8 75 2.0 WSW 52 70 28 38 1007.1 1007.2 0.4
04/05:30am 10.4 0.3 7.5 82 1.4 WSW 50 63 27 34 1007.0 1007.1 0.4
04/05:00am 10.1 -0.6 8.0 87 1.0 WSW 54 72 29 39 1006.9 1007.0 0.4
04/04:43am 10.3 3.7 7.9 85 1.2 WSW 32 57 17 31 1007.3 1007.4 0.2
04/04:39am 10.8 5.8 8.0 83 1.4 W 24 52 13 28 1007.3 1007.4 0.0
04/04:30am 11.0 6.7 7.7 80 1.6 WNW 20 28 11 15 1007.2 1007.3 0.0
04/04:00am 12.2 5.3 7.1 71 2.5 WNW 33 44 18 24 1006.8 1006.9 0.0
04/03:30am 11.8 4.8 6.7 71 2.4 WNW 33 48 18 26 1006.8 1006.9 0.0
04/03:00am 11.9 4.8 6.2 68 2.7 WNW 33 46 18 25 1007.1 1007.2 0.0
04/02:32am 11.4 3.9 6.1 70 2.5 NW 35 54 19 29 1007.5 1007.6 0.0
04/02:30am 11.3 4.1 6.0 70 2.5 NW 33 48 18 26 1007.6 1007.7 0.0
04/02:16am 11.2 2.8 5.5 68 2.6 NW 39 57 21 31 1007.7 1007.8 0.0
04/02:00am 11.1 2.3 5.6 69 2.6 WNW 41 57 22 31 1007.9 1008.0 0.0
04/01:38am 10.9 2.8 5.2 68 2.6 NW 37 57 20 31 1007.9 1008.0 0.0
04/01:30am 10.8 2.8 5.6 70 2.4 NW 37 52 20 28 1008.2 1008.3 0.0
04/01:00am 10.8 1.9 5.3 69 2.5 WNW 41 59 22 32 1008.7 1008.8 0.0
04/12:53am 10.7 2.6 5.3 69 2.5 WNW 37 56 20 30 1008.7 1008.8 0.0
04/12:30am 10.6 2.8 4.9 68 2.6 NW 35 46 19 25 1009.1 1009.2 0.0
04/12:22am 10.5 4.1 5.3 70 2.4 NNW 28 46 15 25 1009.3 1009.4 0.0
04/12:00am 9.9 2.6 4.7 70 2.3 NW 32 46 17 25 1010.0 1010.1 0.0
 
Date/Time
EST
Temp
°C
App
Temp
°C
Dew
Point
Rel
Hum
%
Delta-T
°C
Wind Press
QNH
hPa
Press
MSL
hPa
Rain
since 9 am
mm
Dir
 
Spd
km/h
Gust
km/h
Spd
kts
Gust
kts
03/11:59pm 9.9 2.4 4.5 69 2.4 NW 33 59 18 32 1009.9 1010.0 0.0
03/11:32pm 10.3 2.1 4.9 69 2.4 NW 37 56 20 30 1009.9 1010.0 0.0
03/11:30pm 10.2 2.4 4.8 69 2.4 NW 35 48 19 26 1010.0 1010.1 0.0
03/11:00pm 9.3 3.5 4.5 72 2.1 N 24 39 13 21 1010.7 1010.8 0.0
03/10:30pm 9.3 3.1 4.1 70 2.3 NW 26 43 14 23 1010.8 1010.9 0.0
03/10:00pm 9.4 0.6 3.8 68 2.5 NW 39 48 21 26 1011.1 1011.2 0.0
03/09:30pm 9.0 1.1 4.2 72 2.1 NW 35 48 19 26 1011.4 1011.5 0.0
03/09:00pm 8.8 1.2 4.0 72 2.1 NW 33 46 18 25 1012.0 1012.1 0.0
03/08:30pm 8.9 3.3 3.7 70 2.3 NNW 22 32 12 17 1012.6 1012.7 0.0
03/08:00pm 9.5 2.7 3.3 65 2.7 NW 28 41 15 22 1013.1 1013.2 0.0
03/07:30pm 9.7 0.8 3.0 63 2.9 WNW 39 59 21 32 1013.1 1013.2 0.0
03/07:07pm 9.8 3.0 3.1 63 2.9 WNW 28 46 15 25 1013.3 1013.4 0.0
03/07:00pm 9.6 3.2 3.4 65 2.7 WNW 26 39 14 21 1013.6 1013.7 0.0
03/06:30pm 9.3 5.0 3.1 65 2.7 NW 15 24 8 13 1014.0 1014.1 0.0
03/06:00pm 9.1 4.0 2.9 65 2.6 NNW 19 32 10 17 1014.0 1014.1 0.0
03/05:30pm 9.4 4.1 2.9 64 2.8 NW 20 32 11 17 1014.3 1014.4 0.0
03/05:00pm 9.5 3.4 3.0 64 2.8 NW 24 33 13 18 1014.5 1014.6 0.0
03/04:30pm 9.7 2.5 3.0 63 2.9 NW 30 41 16 22 1014.7 1014.8 0.0
03/04:11pm 9.8 3.1 3.8 66 2.6 WNW 28 46 15 25 1014.7 1014.8 0.0
03/04:00pm 9.8 2.7 3.5 65 2.7 WNW 30 43 16 23 1014.7 1014.8 0.0
03/03:40pm 9.8 2.4 4.0 67 2.6 WNW 32 50 17 27 1014.7 1014.8 0.0
03/03:30pm 9.8 1.8 3.8 66 2.6 NW 35 44 19 24 1014.8 1014.9 0.0
03/03:00pm 10.2 2.7 3.7 64 2.9 NW 32 46 17 25 1015.2 1015.3 0.0
03/02:57pm 10.3 3.2 3.3 62 3.1 NW 30 46 16 25 1015.2 1015.3 0.0
03/02:30pm 11.4 7.7 4.2 61 3.2 NNW 13 20 7 11 1015.6 1015.7 0.0
03/02:00pm 10.3 5.0 3.1 61 3.1 NW 20 30 11 16 1016.2 1016.3 0.0
03/01:30pm 11.2 6.5 3.0 57 3.6 NW 17 26 9 14 1016.7 1016.8 0.0
03/01:00pm 10.6 5.9 3.2 60 3.2 NW 17 26 9 14 1017.4 1017.5 0.0
03/12:30pm 10.8 5.6 3.6 61 3.2 NW 20 30 11 16 1018.0 1018.1 0.0
03/12:00pm 10.5 5.3 3.3 61 3.1 NW 20 28 11 15 1018.5 1018.7 0.0
03/11:30am 10.3 5.1 3.3 62 3.1 WNW 20 30 11 16 1019.0 1019.2 0.0
03/11:00am 9.8 2.1 3.3 64 2.8 WNW 33 43 18 23 1019.6 1019.7 0.0
03/10:30am 9.5 3.0 2.8 63 2.9 WNW 26 37 14 20 1020.0 1020.1 0.0
03/10:00am 9.0 3.8 3.6 69 2.3 NW 20 32 11 17 1020.2 1020.3 0.0
03/09:30am 8.4 4.1 3.1 69 2.3 NNW 15 22 8 12 1020.5 1020.6 0.0
03/09:00am 8.1 0.9 2.8 69 2.2 NW 30 39 16 21 1020.4 1020.5 2.6
03/08:30am 7.9 1.1 3.0 71 2.1 NW 28 39 15 21 1020.4 1020.5 2.6
03/08:00am 7.6 0.4 2.9 72 2.0 WNW 30 48 16 26 1020.5 1020.6 2.6
03/07:55am 7.5 0.3 2.8 72 2.0 WNW 30 48 16 26 1020.5 1020.6 2.6
03/07:30am 7.4 -0.2 2.7 72 2.0 WNW 32 46 17 25 1020.3 1020.4 2.6
03/07:00am 7.5 -0.9 3.6 76 1.7 WNW 37 46 20 25 1020.1 1020.2 2.6
03/06:30am 7.1 0.7 3.2 76 1.6 WNW 26 35 14 19 1020.3 1020.4 2.6
03/06:00am 7.0 0.6 3.4 78 1.5 W 26 32 14 17 1020.4 1020.5 2.6
03/05:30am 7.2 -1.6 3.6 78 1.5 W 39 48 21 26 1020.1 1020.2 2.6
03/05:00am 7.1 0.4 3.5 78 1.5 WNW 28 37 15 20 1020.4 1020.5 2.6
03/04:30am 6.7 0.3 3.0 77 1.5 WNW 26 30 14 16 1020.7 1020.8 2.6
03/04:00am 6.7 1.6 3.1 78 1.5 WNW 19 22 10 12 1021.0 1021.1 2.6
03/03:30am 6.5 1.7 2.4 75 1.7 NW 17 20 9 11 1021.1 1021.2 2.6
03/03:00am 6.4 2.3 2.5 76 1.6 WNW 13 19 7 10 1021.5 1021.6 2.6
03/02:30am 6.6 0.8 2.3 74 1.8 WNW 22 30 12 16 1021.7 1021.8 2.6
03/02:00am 7.0 0.5 2.9 75 1.7 W 26 39 14 21 1021.5 1021.6 2.6
03/01:30am 7.2 1.5 2.9 74 1.8 WNW 22 35 12 19 1021.6 1021.7 2.6
03/01:00am 7.4 -0.3 3.5 76 1.7 W 33 43 18 23 1021.4 1021.5 2.6
03/12:30am 7.5 -1.4 3.2 74 1.8 W 39 52 21 28 1021.3 1021.4 2.6
03/12:00am 7.2 -2.1 3.1 75 1.7 W 41 50 22 27 1021.2 1021.3 2.6
 
Date/Time
EST
Temp
°C
App
Temp
°C
Dew
Point
Rel
Hum
%
Delta-T
°C
Wind Press
QNH
hPa
Press
MSL
hPa
Rain
since 9 am
mm
Dir
 
Spd
km/h
Gust
km/h
Spd
kts
Gust
kts
02/11:30pm 6.9 -3.6 3.9 81 1.3 W 48 61 26 33 1021.2 1021.3 2.6
02/11:11pm 7.4 -3.3 2.7 72 2.0 WSW 48 70 26 38 1021.1 1021.2 2.6
02/11:00pm 7.2 -2.6 3.3 76 1.6 WSW 44 61 24 33 1021.2 1021.3 2.6
02/10:33pm 7.4 -2.5 1.9 68 2.3 WSW 43 63 23 34 1021.1 1021.2 2.4
02/10:30pm 7.4 -2.0 2.3 70 2.1 WSW 41 54 22 29 1021.1 1021.2 2.4
02/10:00pm 6.7 -4.7 3.1 78 1.5 WSW 52 70 28 38 1020.7 1020.8 2.4
02/09:30pm 7.3 -3.1 2.2 70 2.1 WSW 46 65 25 35 1020.8 1020.9 2.4
02/09:00pm 6.9 -2.8 2.6 74 1.8 W 43 61 23 33 1020.5 1020.6 2.4
02/08:30pm 6.5 -4.4 3.7 82 1.2 WSW 50 72 27 39 1020.2 1020.3 2.0
02/08:04pm 6.8 -2.8 3.2 78 1.5 W 43 65 23 35 1020.0 1020.1 2.0
02/08:00pm 7.2 -2.5 2.7 73 1.9 W 43 52 23 28 1020.0 1020.1 2.0
02/07:30pm 7.4 -2.9 2.9 73 1.9 WSW 46 70 25 38 1019.4 1019.5 2.0
02/07:27pm 7.1 -2.6 2.8 74 1.8 WSW 43 61 23 33 1019.4 1019.5 2.0
02/07:00pm 6.7 -4.0 2.6 75 1.7 W 48 61 26 33 1019.0 1019.2 2.0
02/06:30pm 6.8 -4.4 2.1 72 1.9 W 50 69 27 37 1018.4 1018.6 2.0
02/06:05pm 6.7 -6.2 1.8 71 2.0 WSW 59 80 32 43 1018.3 1018.5 2.0
02/06:00pm 7.2 -5.0 2.5 72 1.9 WSW 56 72 30 39 1018.1 1018.2 2.0
02/05:37pm 7.1 -4.5 2.0 70 2.1 WSW 52 70 28 38 1018.1 1018.2 2.0
02/05:30pm 7.4 -3.7 2.5 71 2.0 WSW 50 65 27 35 1018.1 1018.2 2.0
02/05:04pm 6.9 -2.9 2.2 72 1.9 W 43 61 23 33 1017.8 1017.9 2.0
02/05:00pm 6.9 -2.3 3.3 78 1.5 W 41 52 22 28 1017.7 1017.8 2.0
02/04:36pm 5.8 -5.1 3.3 84 1.0 W 50 69 27 37 1017.5 1017.6 2.0
02/04:30pm 5.7 -6.6 3.2 84 1.0 W 57 69 31 37 1017.4 1017.5 2.0
02/04:00pm 7.0 -5.3 2.1 71 2.0 WSW 56 74 30 40 1016.9 1017.0 1.8
02/03:30pm 6.7 -5.1 2.6 75 1.7 WSW 54 78 29 42 1016.4 1016.5 1.8
02/03:11pm 6.8 -3.2 4.1 83 1.2 WSW 46 65 25 35 1016.0 1016.1 1.8
02/03:00pm 6.2 -4.7 3.7 84 1.1 WSW 50 65 27 35 1016.0 1016.1 1.8
02/02:30pm 6.8 -5.8 3.8 81 1.3 WSW 59 80 32 43 1015.0 1015.1 1.6
02/02:03pm 6.2 -6.2 2.7 78 1.4 WSW 57 82 31 44 1014.5 1014.6 1.2
02/02:00pm 7.0 -4.8 2.7 74 1.8 WSW 54 69 29 37 1014.4 1014.5 1.2
02/01:43pm 6.8 -3.0 3.6 80 1.4 WSW 44 65 24 35 1014.5 1014.6 1.2
02/01:35pm 6.1 -6.0 3.3 82 1.2 WSW 56 82 30 44 1014.7 1014.8 1.2
02/01:30pm 6.5 -7.3 3.3 80 1.3 WSW 65 85 35 46 1014.6 1014.7 1.2
02/01:19pm 7.0 -6.5 2.9 75 1.7 WSW 63 83 34 45 1014.1 1014.2 1.2
02/01:17pm 7.2 -6.3 2.7 73 1.9 WSW 63 83 34 45 1014.0 1014.1 1.2
02/01:00pm 8.0 -3.2 2.0 66 2.5 WSW 50 72 27 39 1013.5 1013.6 1.2
02/12:42pm 8.4 -4.2 1.6 62 2.8 WSW 57 76 31 41 1013.0 1013.1 1.2
02/12:30pm 8.0 -4.5 2.0 66 2.5 WSW 57 72 31 39 1013.0 1013.1 1.2
02/12:02pm 7.6 -3.7 3.3 74 1.8 W 52 70 28 38 1012.5 1012.6 1.2
02/12:00pm 7.3 -4.0 3.7 78 1.5 W 52 67 28 36 1012.5 1012.6 1.2
02/11:53am 6.8 -4.9 3.2 78 1.5 W 54 74 29 40 1012.5 1012.6 1.2
02/11:49am 6.9 -5.2 3.2 77 1.6 WSW 56 76 30 41 1012.4 1012.5 1.2
02/11:30am 7.3 -3.7 2.8 73 1.9 WSW 50 76 27 41 1012.5 1012.6 1.2
02/11:00am 7.3 -3.2 3.5 77 1.6 SW 48 69 26 37 1012.4 1012.5 1.2
02/10:54am 7.5 -4.0 4.3 80 1.4 WSW 54 72 29 39 1012.1 1012.2 1.2
02/10:30am 6.1 -5.8 4.4 89 0.7 W 56 70 30 38 1011.3 1011.4 1.0
02/10:08am 6.5 -3.9 4.2 85 1.0 WSW 48 67 26 36 1011.4 1011.5 0.4

Other Formats:

Comma delimited format used in spreadsheet applications
http://www.bom.gov.au/fwo/IDT60801/IDT60801.95967.axf

JavaScript Object Notation format (JSON) in row-major order
http://www.bom.gov.au/fwo/IDT60801/IDT60801.95967.json